Rickmers Dalian — V7FS3 — position and weather

sailwx.info

Track history (hours):
 
Tides and Currents Weather Stations Pressure Air Temp Water Temp Dewpoint Dewpoint Depression Visibility Wind Speed Wind Dir Waves Ship Positions

Rickmers Dalian

Last reported at 2014-Jul-20 21:28 UTC. Time now 2014-Jul-25 20:46 UTC.
Position N 31°12' E 122°36'.

Length 193 m; beam 27.8 m; draft 11.2 m.

Type: Ship. MMSI: 538090156.

Date/timePositionNaut miles runAvg speedWind from/ knotsBaromVisibWave heightAir tempDewpointWater temp
2014-Jul-20 21:28N 31°12' E 122°36'30 3.2
2014-Jul-20 12:12N 31°41' E 122°39'29812.4
2014-Jul-19 12:09N 36°39' E 122°41'812.8
2014-Jul-19 11:33N 36°47' E 122°42'1313.3
2014-Jul-19 10:33N 36°60' E 122°45'2713.5
2014-Jul-19 08:31N 37°27' E 122°45'1313.2
2014-Jul-19 07:32N 37°39' E 122°37'1412.4
2014-Jul-19 06:25N 37°51' E 122°29'1112.3
2014-Jul-19 05:31N 37°57' E 122°17'2712.8
2014-Jul-19 03:25N 38°10' E 121°47'1516.8
2014-Jul-19 02:33N 38°18' E 121°31'15012.5
2014-Jul-18 14:33N 38°50' E 118°24'1312.9
2014-Jul-18 13:33N 38°53' E 118°08'1212.1
2014-Jul-18 12:33N 38°57' E 117°53'7 6.8
2014-Jul-18 11:33N 38°59' E 117°45'0 0.0
2014-Jul-18 10:33N 38°59' E 117°45'0 0.0
2014-Jul-18 09:33N 38°59' E 117°45'0 0.0
2014-Jul-18 08:33N 38°59' E 117°45'0 0.0
2014-Jul-18 07:33N 38°59' E 117°45'0 0.0
2014-Jul-18 06:33N 38°59' E 117°45'0 0.0
2014-Jul-18 05:33N 38°59' E 117°45'0 0.0
2014-Jul-18 04:33N 38°59' E 117°45'0 0.0
2014-Jul-18 03:33N 38°59' E 117°45'0 0.0
2014-Jul-18 02:33N 38°59' E 117°45'0 0.0
2014-Jul-18 01:33N 38°59' E 117°45'0 0.0
2014-Jul-18 00:34N 38°59' E 117°45'0 0.0
2014-Jul-17 23:33N 38°59' E 117°45'0 0.0
2014-Jul-17 22:33N 38°59' E 117°45'0 0.0
2014-Jul-17 21:33N 38°59' E 117°45'0 0.0
2014-Jul-17 20:33N 38°59' E 117°45'0 0.0
2014-Jul-17 19:33N 38°59' E 117°45'0 0.0
2014-Jul-17 18:33N 38°59' E 117°45'0 0.0
2014-Jul-17 17:33N 38°59' E 117°45'0 0.0
2014-Jul-17 16:33N 38°59' E 117°45'0 0.0
2014-Jul-17 15:33N 38°59' E 117°45'0 0.0
2014-Jul-17 14:33N 38°59' E 117°45'0 0.0
2014-Jul-17 13:23N 38°59' E 117°45'0 0.0
2014-Jul-17 12:33N 38°59' E 117°45'0 0.0
2014-Jul-17 11:33N 38°59' E 117°45'0 0.0
2014-Jul-17 10:33N 38°59' E 117°45'0 0.0
2014-Jul-17 09:33N 38°59' E 117°45'0 0.0
2014-Jul-17 08:33N 38°59' E 117°45'0 0.0
2014-Jul-17 07:33N 38°59' E 117°45'0 0.0
2014-Jul-17 06:33N 38°59' E 117°45'0 0.0
2014-Jul-17 05:33N 38°59' E 117°45'0 0.0
2014-Jul-17 04:33N 38°59' E 117°45'0 0.0
2014-Jul-17 03:33N 38°59' E 117°45'0 0.0
2014-Jul-17 02:33N 38°59' E 117°45'0 0.0
2014-Jul-17 01:33N 38°59' E 117°45'0 0.0
2014-Jul-17 00:33N 38°59' E 117°45'0 0.0
2014-Jul-16 23:33N 38°59' E 117°45'0 0.0
2014-Jul-16 22:33N 38°59' E 117°45'0 0.0
2014-Jul-16 21:33N 38°59' E 117°45'0 0.0
2014-Jul-16 20:33N 38°59' E 117°45'0 0.0
2014-Jul-16 19:33N 38°59' E 117°45'0 0.0
2014-Jul-16 18:33N 38°59' E 117°45'0 0.0
2014-Jul-16 17:19N 38°59' E 117°45'0 0.1
2014-Jul-16 16:26N 38°59' E 117°45'1 0.8
2014-Jul-16 15:33N 38°59' E 117°45'1010.0
2014-Jul-16 14:33N 38°57' E 117°58'6 2.8
2014-Jul-16 12:27N 38°58' E 118°05'0 0.2
2014-Jul-16 11:06N 38°58' E 118°05'0 0.1
2014-Jul-16 10:33N 38°58' E 118°05'0 0.0
2014-Jul-16 09:33N 38°58' E 118°05'0 0.0
2014-Jul-16 08:24N 38°58' E 118°05'0 0.0
2014-Jul-16 06:15N 38°58' E 118°05'0 0.1
2014-Jul-16 05:27N 38°58' E 118°05'0 0.0
2014-Jul-16 04:33N 38°58' E 118°05'0 0.1
2014-Jul-16 01:21N 38°58' E 118°05'0 0.0
2014-Jul-15 20:18N 38°58' E 118°05'0 0.0
2014-Jul-15 19:27N 38°58' E 118°05'0 0.0
2014-Jul-15 18:30N 38°58' E 118°05'0 0.0
2014-Jul-15 17:33N 38°58' E 118°05'0 0.0
2014-Jul-15 16:27N 38°58' E 118°05'0 0.2
2014-Jul-15 15:30N 38°58' E 118°05'0 0.1
2014-Jul-15 14:33N 38°58' E 118°05'0 0.0
2014-Jul-15 13:33N 38°58' E 118°05'0 0.0
2014-Jul-15 12:27N 38°58' E 118°05'0 0.1
2014-Jul-15 11:33N 38°58' E 118°05'0 0.1
2014-Jul-15 10:33N 38°58' E 118°05'0 0.1
2014-Jul-15 09:33N 38°58' E 118°05'0 0.0
2014-Jul-15 08:30N 38°58' E 118°05'0 0.0
2014-Jul-15 07:33N 38°58' E 118°05'0 0.0
2014-Jul-15 06:33N 38°58' E 118°05'0 0.0
2014-Jul-15 05:33N 38°58' E 118°05'0 0.1
2014-Jul-15 04:33N 38°58' E 118°05'112 7.5
2014-Jul-14 13:33N 38°41' E 120°28'2410.9
2014-Jul-14 11:21N 38°36' E 120°58'910.2
2014-Jul-14 10:30N 38°32' E 121°07'1010.9
2014-Jul-14 09:33N 38°32' E 121°21'1111.1
2014-Jul-14 08:33N 38°32' E 121°35'9 9.2
2014-Jul-14 07:33N 38°36' E 121°45'1111.3
2014-Jul-14 06:33N 38°47' E 121°45'1010.4
2014-Jul-14 05:33N 38°58' E 121°46'  
2014-Jul-11 14:16N 38°08' E 122°24'11 9.4
2014-Jul-11 13:03N 37°58' E 122°31'5 9.6
2014-Jul-11 12:31N 37°54' E 122°35'1010.0
2014-Jul-11 11:33N 37°46' E 122°42'1110.5
2014-Jul-11 10:30N 37°37' E 122°50'1010.8
2014-Jul-11 09:32N 37°28' E 122°58'5 9.6
2014-Jul-11 09:00N 37°24' E 122°54'1120.4 210 / 81001.0 0.5 0.532.027.924.0
2014-Jul-11 08:27N 37°18' E 123°06'13 9.0
2014-Jul-11 07:00N 37°06' E 123°12'814.1 310 / 91002.0 0.3 1.026.019.925.0
2014-Jul-11 06:25N 37°01' E 123°20'8 9.8
2014-Jul-11 05:33N 36°52' E 123°20'1010.1
2014-Jul-11 04:33N 36°42' E 123°20'1010.2
2014-Jul-11 03:33N 36°32' E 123°20'10 9.9
2014-Jul-11 02:33N 36°22' E 123°20'1017.9
2014-Jul-11 02:00N 36°12' E 123°18'23 8.1 290 / 91003.0 1.1 1.026.024.624.0
2014-Jul-10 23:05N 35°49' E 123°20'  
Track history (hours):
 
Tides and Currents Weather Stations Pressure Air Temp Water Temp Dewpoint Dewpoint Depression Visibility Wind Speed Wind Dir Waves Ship Positions

Rickmers Dalian

Last reported at 2014-Jul-20 21:28 UTC. Time now 2014-Jul-25 20:46 UTC.
Position N 31°12' E 122°36'.

Length 193 m; beam 27.8 m; draft 11.2 m.

Type: Ship. MMSI: 538090156.

Date/timePositionNaut miles runAvg speedWind from/ knotsBaromVisibWave heightAir tempDewpointWater temp
2014-Jul-20 21:28N 31°12' E 122°36'30 3.2
2014-Jul-20 12:12N 31°41' E 122°39'29812.4
2014-Jul-19 12:09N 36°39' E 122°41'812.8
2014-Jul-19 11:33N 36°47' E 122°42'1313.3
2014-Jul-19 10:33N 36°60' E 122°45'2713.5
2014-Jul-19 08:31N 37°27' E 122°45'1313.2
2014-Jul-19 07:32N 37°39' E 122°37'1412.4
2014-Jul-19 06:25N 37°51' E 122°29'1112.3
2014-Jul-19 05:31N 37°57' E 122°17'2712.8
2014-Jul-19 03:25N 38°10' E 121°47'1516.8
2014-Jul-19 02:33N 38°18' E 121°31'15012.5
2014-Jul-18 14:33N 38°50' E 118°24'1312.9
2014-Jul-18 13:33N 38°53' E 118°08'1212.1
2014-Jul-18 12:33N 38°57' E 117°53'7 6.8
2014-Jul-18 11:33N 38°59' E 117°45'0 0.0
2014-Jul-18 10:33N 38°59' E 117°45'0 0.0
2014-Jul-18 09:33N 38°59' E 117°45'0 0.0
2014-Jul-18 08:33N 38°59' E 117°45'0 0.0
2014-Jul-18 07:33N 38°59' E 117°45'0 0.0
2014-Jul-18 06:33N 38°59' E 117°45'0 0.0
2014-Jul-18 05:33N 38°59' E 117°45'0 0.0
2014-Jul-18 04:33N 38°59' E 117°45'0 0.0
2014-Jul-18 03:33N 38°59' E 117°45'0 0.0
2014-Jul-18 02:33N 38°59' E 117°45'0 0.0
2014-Jul-18 01:33N 38°59' E 117°45'0 0.0
2014-Jul-18 00:34N 38°59' E 117°45'0 0.0
2014-Jul-17 23:33N 38°59' E 117°45'0 0.0
2014-Jul-17 22:33N 38°59' E 117°45'0 0.0
2014-Jul-17 21:33N 38°59' E 117°45'0 0.0
2014-Jul-17 20:33N 38°59' E 117°45'0 0.0
2014-Jul-17 19:33N 38°59' E 117°45'0 0.0
2014-Jul-17 18:33N 38°59' E 117°45'0 0.0
2014-Jul-17 17:33N 38°59' E 117°45'0 0.0
2014-Jul-17 16:33N 38°59' E 117°45'0 0.0
2014-Jul-17 15:33N 38°59' E 117°45'0 0.0
2014-Jul-17 14:33N 38°59' E 117°45'0 0.0
2014-Jul-17 13:23N 38°59' E 117°45'0 0.0
2014-Jul-17 12:33N 38°59' E 117°45'0 0.0
2014-Jul-17 11:33N 38°59' E 117°45'0 0.0
2014-Jul-17 10:33N 38°59' E 117°45'0 0.0
2014-Jul-17 09:33N 38°59' E 117°45'0 0.0
2014-Jul-17 08:33N 38°59' E 117°45'0 0.0
2014-Jul-17 07:33N 38°59' E 117°45'0 0.0
2014-Jul-17 06:33N 38°59' E 117°45'0 0.0
2014-Jul-17 05:33N 38°59' E 117°45'0 0.0
2014-Jul-17 04:33N 38°59' E 117°45'0 0.0
2014-Jul-17 03:33N 38°59' E 117°45'0 0.0
2014-Jul-17 02:33N 38°59' E 117°45'0 0.0
2014-Jul-17 01:33N 38°59' E 117°45'0 0.0
2014-Jul-17 00:33N 38°59' E 117°45'0 0.0
2014-Jul-16 23:33N 38°59' E 117°45'0 0.0
2014-Jul-16 22:33N 38°59' E 117°45'0 0.0
2014-Jul-16 21:33N 38°59' E 117°45'0 0.0
2014-Jul-16 20:33N 38°59' E 117°45'0 0.0
2014-Jul-16 19:33N 38°59' E 117°45'0 0.0
2014-Jul-16 18:33N 38°59' E 117°45'0 0.0
2014-Jul-16 17:19N 38°59' E 117°45'0 0.1
2014-Jul-16 16:26N 38°59' E 117°45'1 0.8
2014-Jul-16 15:33N 38°59' E 117°45'1010.0
2014-Jul-16 14:33N 38°57' E 117°58'6 2.8
2014-Jul-16 12:27N 38°58' E 118°05'0 0.2
2014-Jul-16 11:06N 38°58' E 118°05'0 0.1
2014-Jul-16 10:33N 38°58' E 118°05'0 0.0
2014-Jul-16 09:33N 38°58' E 118°05'0 0.0
2014-Jul-16 08:24N 38°58' E 118°05'0 0.0
2014-Jul-16 06:15N 38°58' E 118°05'0 0.1
2014-Jul-16 05:27N 38°58' E 118°05'0 0.0
2014-Jul-16 04:33N 38°58' E 118°05'0 0.1
2014-Jul-16 01:21N 38°58' E 118°05'0 0.0
2014-Jul-15 20:18N 38°58' E 118°05'0 0.0
2014-Jul-15 19:27N 38°58' E 118°05'0 0.0
2014-Jul-15 18:30N 38°58' E 118°05'0 0.0
2014-Jul-15 17:33N 38°58' E 118°05'0 0.0
2014-Jul-15 16:27N 38°58' E 118°05'0 0.2
2014-Jul-15 15:30N 38°58' E 118°05'0 0.1
2014-Jul-15 14:33N 38°58' E 118°05'0 0.0
2014-Jul-15 13:33N 38°58' E 118°05'0 0.0
2014-Jul-15 12:27N 38°58' E 118°05'0 0.1
2014-Jul-15 11:33N 38°58' E 118°05'0 0.1
2014-Jul-15 10:33N 38°58' E 118°05'0 0.1
2014-Jul-15 09:33N 38°58' E 118°05'0 0.0
2014-Jul-15 08:30N 38°58' E 118°05'0 0.0
2014-Jul-15 07:33N 38°58' E 118°05'0 0.0
2014-Jul-15 06:33N 38°58' E 118°05'0 0.0
2014-Jul-15 05:33N 38°58' E 118°05'0 0.1
2014-Jul-15 04:33N 38°58' E 118°05'112 7.5
2014-Jul-14 13:33N 38°41' E 120°28'2410.9
2014-Jul-14 11:21N 38°36' E 120°58'910.2
2014-Jul-14 10:30N 38°32' E 121°07'1010.9
2014-Jul-14 09:33N 38°32' E 121°21'1111.1
2014-Jul-14 08:33N 38°32' E 121°35'9 9.2
2014-Jul-14 07:33N 38°36' E 121°45'1111.3
2014-Jul-14 06:33N 38°47' E 121°45'1010.4
2014-Jul-14 05:33N 38°58' E 121°46'  
2014-Jul-11 14:16N 38°08' E 122°24'11 9.4
2014-Jul-11 13:03N 37°58' E 122°31'5 9.6
2014-Jul-11 12:31N 37°54' E 122°35'1010.0
2014-Jul-11 11:33N 37°46' E 122°42'1110.5
2014-Jul-11 10:30N 37°37' E 122°50'1010.8
2014-Jul-11 09:32N 37°28' E 122°58'5 9.6
2014-Jul-11 09:00N 37°24' E 122°54'1120.4 210 / 81001.0 0.5 0.532.027.924.0
2014-Jul-11 08:27N 37°18' E 123°06'13 9.0
2014-Jul-11 07:00N 37°06' E 123°12'814.1 310 / 91002.0 0.3 1.026.019.925.0
2014-Jul-11 06:25N 37°01' E 123°20'8 9.8
2014-Jul-11 05:33N 36°52' E 123°20'1010.1
2014-Jul-11 04:33N 36°42' E 123°20'1010.2
2014-Jul-11 03:33N 36°32' E 123°20'10 9.9
2014-Jul-11 02:33N 36°22' E 123°20'1017.9
2014-Jul-11 02:00N 36°12' E 123°18'23 8.1 290 / 91003.0 1.1 1.026.024.624.0
2014-Jul-10 23:05N 35°49' E 123°20'  

Dump ship's entire track history